sensor_id;sensor_type;location;lat;lon;timestamp;P1;durP1;ratioP1;P2;durP2;ratioP2
1693;SDS011;844;47.058;15.472;2023-03-14T00:01:49;16.90;;;15.10;;
1693;SDS011;844;47.058;15.472;2023-03-14T00:04:20;16.97;;;14.00;;
1693;SDS011;844;47.058;15.472;2023-03-14T00:06:51;15.57;;;13.10;;
1693;SDS011;844;47.058;15.472;2023-03-14T00:09:25;14.33;;;12.23;;
1693;SDS011;844;47.058;15.472;2023-03-14T00:11:57;11.97;;;10.70;;
1693;SDS011;844;47.058;15.472;2023-03-14T00:14:28;12.80;;;11.40;;
1693;SDS011;844;47.058;15.472;2023-03-14T00:17:01;13.40;;;10.70;;
1693;SDS011;844;47.058;15.472;2023-03-14T00:19:32;13.63;;;11.97;;
1693;SDS011;844;47.058;15.472;2023-03-14T00:22:04;12.60;;;10.50;;
1693;SDS011;844;47.058;15.472;2023-03-14T00:24:37;14.40;;;9.73;;
1693;SDS011;844;47.058;15.472;2023-03-14T00:27:08;11.50;;;10.30;;
1693;SDS011;844;47.058;15.472;2023-03-14T00:29:43;10.77;;;9.67;;
1693;SDS011;844;47.058;15.472;2023-03-14T00:32:28;10.00;;;9.00;;
1693;SDS011;844;47.058;15.472;2023-03-14T00:35:05;12.43;;;9.57;;
1693;SDS011;844;47.058;15.472;2023-03-14T00:37:38;12.53;;;9.47;;
1693;SDS011;844;47.058;15.472;2023-03-14T00:40:13;9.23;;;7.83;;
1693;SDS011;844;47.058;15.472;2023-03-14T00:42:44;8.03;;;7.23;;
1693;SDS011;844;47.058;15.472;2023-03-14T00:45:16;9.27;;;8.37;;
1693;SDS011;844;47.058;15.472;2023-03-14T00:47:51;11.53;;;7.50;;
1693;SDS011;844;47.058;15.472;2023-03-14T00:50:22;7.70;;;7.00;;
1693;SDS011;844;47.058;15.472;2023-03-14T00:52:53;8.30;;;7.60;;
1693;SDS011;844;47.058;15.472;2023-03-14T00:55:25;9.23;;;8.00;;
1693;SDS011;844;47.058;15.472;2023-03-14T00:57:57;7.80;;;6.80;;
1693;SDS011;844;47.058;15.472;2023-03-14T01:00:29;7.90;;;7.20;;
1693;SDS011;844;47.058;15.472;2023-03-14T01:03:00;8.87;;;7.60;;
1693;SDS011;844;47.058;15.472;2023-03-14T01:05:33;7.60;;;6.80;;
1693;SDS011;844;47.058;15.472;2023-03-14T01:08:04;7.37;;;6.63;;
1693;SDS011;844;47.058;15.472;2023-03-14T01:10:38;8.27;;;7.47;;
1693;SDS011;844;47.058;15.472;2023-03-14T01:13:09;9.37;;;7.93;;
1693;SDS011;844;47.058;15.472;2023-03-14T01:15:41;10.13;;;7.53;;
1693;SDS011;844;47.058;15.472;2023-03-14T01:18:12;8.10;;;7.13;;
1693;SDS011;844;47.058;15.472;2023-03-14T01:20:44;8.60;;;7.80;;
1693;SDS011;844;47.058;15.472;2023-03-14T01:23:14;7.77;;;7.03;;
1693;SDS011;844;47.058;15.472;2023-03-14T01:25:49;8.50;;;7.60;;
1693;SDS011;844;47.058;15.472;2023-03-14T01:28:23;9.80;;;7.37;;
1693;SDS011;844;47.058;15.472;2023-03-14T01:30:54;10.10;;;7.83;;
1693;SDS011;844;47.058;15.472;2023-03-14T01:33:27;10.77;;;7.93;;
1693;SDS011;844;47.058;15.472;2023-03-14T01:36:00;9.63;;;8.17;;
1693;SDS011;844;47.058;15.472;2023-03-14T01:38:31;10.40;;;6.53;;
1693;SDS011;844;47.058;15.472;2023-03-14T01:41:12;7.77;;;6.67;;
1693;SDS011;844;47.058;15.472;2023-03-14T01:43:45;8.47;;;7.17;;
1693;SDS011;844;47.058;15.472;2023-03-14T01:46:24;7.70;;;6.87;;
1693;SDS011;844;47.058;15.472;2023-03-14T01:49:04;7.30;;;6.60;;
1693;SDS011;844;47.058;15.472;2023-03-14T01:51:44;9.63;;;6.10;;
1693;SDS011;844;47.058;15.472;2023-03-14T01:54:20;6.23;;;5.63;;
1693;SDS011;844;47.058;15.472;2023-03-14T01:57:00;6.77;;;5.20;;
1693;SDS011;844;47.058;15.472;2023-03-14T01:59:36;8.00;;;5.53;;
1693;SDS011;844;47.058;15.472;2023-03-14T02:02:10;7.50;;;6.20;;
1693;SDS011;844;47.058;15.472;2023-03-14T02:04:42;5.37;;;4.83;;
1693;SDS011;844;47.058;15.472;2023-03-14T02:07:19;6.23;;;5.37;;
1693;SDS011;844;47.058;15.472;2023-03-14T02:09:52;9.30;;;6.23;;
1693;SDS011;844;47.058;15.472;2023-03-14T02:12:26;6.90;;;6.03;;
1693;SDS011;844;47.058;15.472;2023-03-14T02:15:02;6.50;;;5.17;;
1693;SDS011;844;47.058;15.472;2023-03-14T02:17:34;6.60;;;6.00;;
1693;SDS011;844;47.058;15.472;2023-03-14T02:20:15;8.60;;;5.73;;
1693;SDS011;844;47.058;15.472;2023-03-14T02:22:55;5.87;;;4.60;;
1693;SDS011;844;47.058;15.472;2023-03-14T02:25:28;9.40;;;6.07;;
1693;SDS011;844;47.058;15.472;2023-03-14T02:28:06;8.37;;;5.17;;
1693;SDS011;844;47.058;15.472;2023-03-14T02:30:37;8.03;;;5.20;;
1693;SDS011;844;47.058;15.472;2023-03-14T02:33:10;5.63;;;4.60;;
1693;SDS011;844;47.058;15.472;2023-03-14T02:35:47;5.87;;;4.90;;
1693;SDS011;844;47.058;15.472;2023-03-14T02:38:20;6.27;;;5.67;;
1693;SDS011;844;47.058;15.472;2023-03-14T02:40:55;5.60;;;5.20;;
1693;SDS011;844;47.058;15.472;2023-03-14T02:43:31;5.67;;;4.40;;
1693;SDS011;844;47.058;15.472;2023-03-14T02:46:07;4.57;;;4.10;;
1693;SDS011;844;47.058;15.472;2023-03-14T02:48:41;7.33;;;4.53;;
1693;SDS011;844;47.058;15.472;2023-03-14T02:51:14;5.40;;;4.90;;
1693;SDS011;844;47.058;15.472;2023-03-14T02:53:46;4.93;;;3.97;;
1693;SDS011;844;47.058;15.472;2023-03-14T02:56:19;5.77;;;4.47;;
1693;SDS011;844;47.058;15.472;2023-03-14T02:58:53;4.80;;;4.17;;
1693;SDS011;844;47.058;15.472;2023-03-14T03:01:25;6.10;;;3.90;;
1693;SDS011;844;47.058;15.472;2023-03-14T03:03:55;5.13;;;4.10;;
1693;SDS011;844;47.058;15.472;2023-03-14T03:06:26;5.30;;;3.97;;
1693;SDS011;844;47.058;15.472;2023-03-14T03:08:58;4.00;;;3.53;;
1693;SDS011;844;47.058;15.472;2023-03-14T03:11:31;4.10;;;3.70;;
1693;SDS011;844;47.058;15.472;2023-03-14T03:14:06;4.67;;;4.20;;
1693;SDS011;844;47.058;15.472;2023-03-14T03:16:37;4.70;;;4.30;;
1693;SDS011;844;47.058;15.472;2023-03-14T03:19:09;4.63;;;3.90;;
1693;SDS011;844;47.058;15.472;2023-03-14T03:21:41;4.60;;;4.17;;
1693;SDS011;844;47.058;15.472;2023-03-14T03:24:12;3.50;;;3.20;;
1693;SDS011;844;47.058;15.472;2023-03-14T03:26:44;4.00;;;3.60;;
1693;SDS011;844;47.058;15.472;2023-03-14T03:29:18;5.40;;;3.67;;
1693;SDS011;844;47.058;15.472;2023-03-14T03:31:50;5.00;;;4.23;;
1693;SDS011;844;47.058;15.472;2023-03-14T03:34:20;5.70;;;4.43;;
1693;SDS011;844;47.058;15.472;2023-03-14T03:36:55;5.27;;;4.10;;
1693;SDS011;844;47.058;15.472;2023-03-14T03:39:26;5.97;;;4.97;;
1693;SDS011;844;47.058;15.472;2023-03-14T03:41:57;7.10;;;4.60;;
1693;SDS011;844;47.058;15.472;2023-03-14T03:44:30;4.50;;;4.20;;
1693;SDS011;844;47.058;15.472;2023-03-14T03:47:06;4.33;;;3.83;;
1693;SDS011;844;47.058;15.472;2023-03-14T03:49:37;3.93;;;3.53;;
1693;SDS011;844;47.058;15.472;2023-03-14T03:52:09;5.80;;;4.10;;
1693;SDS011;844;47.058;15.472;2023-03-14T03:54:41;10.60;;;3.73;;
1693;SDS011;844;47.058;15.472;2023-03-14T03:57:12;5.97;;;3.90;;
1693;SDS011;844;47.058;15.472;2023-03-14T03:59:45;3.70;;;3.33;;
1693;SDS011;844;47.058;15.472;2023-03-14T04:02:17;4.47;;;4.00;;
1693;SDS011;844;47.058;15.472;2023-03-14T04:04:48;8.43;;;5.10;;
1693;SDS011;844;47.058;15.472;2023-03-14T04:07:20;4.17;;;3.80;;
1693;SDS011;844;47.058;15.472;2023-03-14T04:09:54;7.27;;;3.80;;
1693;SDS011;844;47.058;15.472;2023-03-14T04:12:25;4.50;;;4.00;;
1693;SDS011;844;47.058;15.472;2023-03-14T04:15:03;4.17;;;3.47;;
1693;SDS011;844;47.058;15.472;2023-03-14T04:17:34;5.27;;;4.40;;
1693;SDS011;844;47.058;15.472;2023-03-14T04:20:06;7.30;;;4.63;;
1693;SDS011;844;47.058;15.472;2023-03-14T04:22:41;4.27;;;3.10;;
1693;SDS011;844;47.058;15.472;2023-03-14T04:25:12;3.80;;;3.47;;
1693;SDS011;844;47.058;15.472;2023-03-14T04:27:46;3.40;;;2.83;;
1693;SDS011;844;47.058;15.472;2023-03-14T04:30:24;3.80;;;3.13;;
1693;SDS011;844;47.058;15.472;2023-03-14T04:32:59;4.23;;;2.97;;
1693;SDS011;844;47.058;15.472;2023-03-14T04:35:31;3.83;;;2.90;;
1693;SDS011;844;47.058;15.472;2023-03-14T04:38:03;2.87;;;2.43;;
1693;SDS011;844;47.058;15.472;2023-03-14T04:43:09;3.37;;;2.77;;
1693;SDS011;844;47.058;15.472;2023-03-14T04:45:42;3.40;;;3.10;;
1693;SDS011;844;47.058;15.472;2023-03-14T04:48:22;4.20;;;2.87;;
1693;SDS011;844;47.058;15.472;2023-03-14T04:50:56;4.43;;;3.20;;
1693;SDS011;844;47.058;15.472;2023-03-14T04:53:28;5.17;;;3.30;;
1693;SDS011;844;47.058;15.472;2023-03-14T04:56:01;9.97;;;3.83;;
1693;SDS011;844;47.058;15.472;2023-03-14T04:58:33;6.07;;;3.97;;
1693;SDS011;844;47.058;15.472;2023-03-14T05:01:06;5.50;;;3.23;;
1693;SDS011;844;47.058;15.472;2023-03-14T05:03:39;3.50;;;2.37;;
1693;SDS011;844;47.058;15.472;2023-03-14T05:06:11;4.80;;;3.40;;
1693;SDS011;844;47.058;15.472;2023-03-14T05:08:45;3.80;;;3.50;;
1693;SDS011;844;47.058;15.472;2023-03-14T05:11:18;4.00;;;3.40;;
1693;SDS011;844;47.058;15.472;2023-03-14T05:13:49;3.50;;;3.20;;
1693;SDS011;844;47.058;15.472;2023-03-14T05:16:22;4.60;;;3.40;;
1693;SDS011;844;47.058;15.472;2023-03-14T05:18:53;5.83;;;3.20;;
1693;SDS011;844;47.058;15.472;2023-03-14T05:21:26;3.33;;;3.03;;
1693;SDS011;844;47.058;15.472;2023-03-14T05:23:58;8.03;;;3.33;;
1693;SDS011;844;47.058;15.472;2023-03-14T05:26:29;3.40;;;2.87;;
1693;SDS011;844;47.058;15.472;2023-03-14T05:29:02;4.13;;;2.70;;
1693;SDS011;844;47.058;15.472;2023-03-14T05:31:34;3.87;;;3.07;;
1693;SDS011;844;47.058;15.472;2023-03-14T05:34:06;4.00;;;3.57;;
1693;SDS011;844;47.058;15.472;2023-03-14T05:36:38;4.30;;;2.77;;
1693;SDS011;844;47.058;15.472;2023-03-14T05:39:09;5.10;;;3.20;;
1693;SDS011;844;47.058;15.472;2023-03-14T05:41:40;6.33;;;3.70;;
1693;SDS011;844;47.058;15.472;2023-03-14T05:44:11;5.17;;;3.33;;
1693;SDS011;844;47.058;15.472;2023-03-14T05:46:44;4.70;;;3.90;;
1693;SDS011;844;47.058;15.472;2023-03-14T05:49:15;4.90;;;3.87;;
1693;SDS011;844;47.058;15.472;2023-03-14T05:51:46;3.77;;;2.80;;
1693;SDS011;844;47.058;15.472;2023-03-14T05:54:18;4.23;;;3.30;;
1693;SDS011;844;47.058;15.472;2023-03-14T05:56:48;4.27;;;3.33;;
1693;SDS011;844;47.058;15.472;2023-03-14T05:59:19;5.03;;;4.17;;
1693;SDS011;844;47.058;15.472;2023-03-14T06:01:52;4.93;;;3.67;;
1693;SDS011;844;47.058;15.472;2023-03-14T06:04:22;5.07;;;3.87;;
1693;SDS011;844;47.058;15.472;2023-03-14T06:06:53;5.10;;;3.77;;
1693;SDS011;844;47.058;15.472;2023-03-14T06:09:24;3.57;;;3.27;;
1693;SDS011;844;47.058;15.472;2023-03-14T06:11:56;4.43;;;3.70;;
1693;SDS011;844;47.058;15.472;2023-03-14T06:14:27;8.40;;;3.50;;
1693;SDS011;844;47.058;15.472;2023-03-14T06:17:00;7.47;;;3.67;;
1693;SDS011;844;47.058;15.472;2023-03-14T06:19:32;5.90;;;3.90;;
1693;SDS011;844;47.058;15.472;2023-03-14T06:22:02;5.87;;;4.63;;
1693;SDS011;844;47.058;15.472;2023-03-14T06:24:40;4.80;;;3.50;;
1693;SDS011;844;47.058;15.472;2023-03-14T06:27:11;8.50;;;5.50;;
1693;SDS011;844;47.058;15.472;2023-03-14T06:29:43;5.37;;;4.87;;
1693;SDS011;844;47.058;15.472;2023-03-14T06:32:17;7.03;;;5.40;;
1693;SDS011;844;47.058;15.472;2023-03-14T06:34:49;9.57;;;5.00;;
1693;SDS011;844;47.058;15.472;2023-03-14T06:37:28;6.00;;;5.10;;
1693;SDS011;844;47.058;15.472;2023-03-14T06:40:00;6.67;;;4.53;;
1693;SDS011;844;47.058;15.472;2023-03-14T06:42:33;7.13;;;4.60;;
1693;SDS011;844;47.058;15.472;2023-03-14T06:45:05;4.37;;;3.70;;
1693;SDS011;844;47.058;15.472;2023-03-14T06:47:42;5.70;;;4.23;;
1693;SDS011;844;47.058;15.472;2023-03-14T06:50:17;3.33;;;3.03;;
1693;SDS011;844;47.058;15.472;2023-03-14T06:52:52;4.93;;;4.27;;
1693;SDS011;844;47.058;15.472;2023-03-14T06:55:25;6.13;;;4.20;;
1693;SDS011;844;47.058;15.472;2023-03-14T06:57:58;5.77;;;3.67;;
1693;SDS011;844;47.058;15.472;2023-03-14T07:00:30;6.70;;;4.20;;
1693;SDS011;844;47.058;15.472;2023-03-14T07:03:06;4.73;;;3.50;;
1693;SDS011;844;47.058;15.472;2023-03-14T07:05:40;4.30;;;3.47;;
1693;SDS011;844;47.058;15.472;2023-03-14T07:08:11;4.80;;;2.83;;
1693;SDS011;844;47.058;15.472;2023-03-14T07:10:45;7.50;;;3.10;;
1693;SDS011;844;47.058;15.472;2023-03-14T07:13:17;8.67;;;3.60;;
1693;SDS011;844;47.058;15.472;2023-03-14T07:15:50;5.70;;;2.93;;
1693;SDS011;844;47.058;15.472;2023-03-14T07:18:25;3.13;;;2.80;;
1693;SDS011;844;47.058;15.472;2023-03-14T07:20:56;4.90;;;3.40;;
1693;SDS011;844;47.058;15.472;2023-03-14T07:23:27;4.63;;;2.97;;
1693;SDS011;844;47.058;15.472;2023-03-14T07:25:59;5.10;;;3.00;;
1693;SDS011;844;47.058;15.472;2023-03-14T07:28:30;4.97;;;3.07;;
1693;SDS011;844;47.058;15.472;2023-03-14T07:31:04;9.27;;;3.20;;
1693;SDS011;844;47.058;15.472;2023-03-14T07:33:42;8.23;;;3.70;;
1693;SDS011;844;47.058;15.472;2023-03-14T07:36:16;3.90;;;2.93;;
1693;SDS011;844;47.058;15.472;2023-03-14T07:38:49;3.37;;;2.97;;
1693;SDS011;844;47.058;15.472;2023-03-14T07:41:22;5.03;;;2.90;;
1693;SDS011;844;47.058;15.472;2023-03-14T07:43:57;6.77;;;3.73;;
1693;SDS011;844;47.058;15.472;2023-03-14T07:46:32;7.43;;;3.90;;
1693;SDS011;844;47.058;15.472;2023-03-14T07:49:06;5.77;;;3.40;;
1693;SDS011;844;47.058;15.472;2023-03-14T07:51:38;3.63;;;3.33;;
1693;SDS011;844;47.058;15.472;2023-03-14T07:54:11;8.33;;;3.80;;
1693;SDS011;844;47.058;15.472;2023-03-14T07:56:42;7.77;;;3.10;;
1693;SDS011;844;47.058;15.472;2023-03-14T07:59:16;6.00;;;3.67;;
1693;SDS011;844;47.058;15.472;2023-03-14T08:01:50;4.00;;;3.00;;
1693;SDS011;844;47.058;15.472;2023-03-14T08:04:23;4.70;;;3.30;;
1693;SDS011;844;47.058;15.472;2023-03-14T08:06:58;4.17;;;3.10;;
1693;SDS011;844;47.058;15.472;2023-03-14T08:09:30;5.10;;;3.47;;
1693;SDS011;844;47.058;15.472;2023-03-14T08:12:01;5.07;;;3.40;;
1693;SDS011;844;47.058;15.472;2023-03-14T08:14:33;3.80;;;2.70;;
1693;SDS011;844;47.058;15.472;2023-03-14T08:17:04;4.60;;;2.40;;
1693;SDS011;844;47.058;15.472;2023-03-14T08:19:36;3.40;;;2.47;;
1693;SDS011;844;47.058;15.472;2023-03-14T08:22:13;3.57;;;2.30;;
1693;SDS011;844;47.058;15.472;2023-03-14T08:24:47;11.60;;;3.53;;
1693;SDS011;844;47.058;15.472;2023-03-14T08:27:18;4.77;;;2.20;;
1693;SDS011;844;47.058;15.472;2023-03-14T08:29:52;5.77;;;2.50;;
1693;SDS011;844;47.058;15.472;2023-03-14T08:32:23;3.83;;;2.23;;
1693;SDS011;844;47.058;15.472;2023-03-14T08:34:56;5.17;;;2.00;;
1693;SDS011;844;47.058;15.472;2023-03-14T08:37:28;5.37;;;3.10;;
1693;SDS011;844;47.058;15.472;2023-03-14T08:40:02;2.97;;;2.30;;
1693;SDS011;844;47.058;15.472;2023-03-14T08:42:35;6.77;;;3.03;;
1693;SDS011;844;47.058;15.472;2023-03-14T08:45:08;3.17;;;1.90;;
1693;SDS011;844;47.058;15.472;2023-03-14T08:47:44;5.53;;;2.67;;
1693;SDS011;844;47.058;15.472;2023-03-14T08:50:18;3.97;;;1.90;;
1693;SDS011;844;47.058;15.472;2023-03-14T08:52:52;3.10;;;2.33;;
1693;SDS011;844;47.058;15.472;2023-03-14T08:55:28;3.73;;;2.40;;
1693;SDS011;844;47.058;15.472;2023-03-14T08:57:58;4.37;;;2.00;;
1693;SDS011;844;47.058;15.472;2023-03-14T09:00:28;3.40;;;2.60;;
1693;SDS011;844;47.058;15.472;2023-03-14T09:03:00;3.90;;;2.30;;
1693;SDS011;844;47.058;15.472;2023-03-14T09:05:34;3.70;;;1.97;;
1693;SDS011;844;47.058;15.472;2023-03-14T09:08:05;3.80;;;1.90;;
1693;SDS011;844;47.058;15.472;2023-03-14T09:10:36;5.77;;;2.30;;
1693;SDS011;844;47.058;15.472;2023-03-14T09:13:06;2.20;;;1.70;;
1693;SDS011;844;47.058;15.472;2023-03-14T09:15:38;2.60;;;1.80;;
1693;SDS011;844;47.058;15.472;2023-03-14T09:18:10;3.80;;;2.13;;
1693;SDS011;844;47.058;15.472;2023-03-14T09:20:42;2.90;;;2.00;;
1693;SDS011;844;47.058;15.472;2023-03-14T09:23:13;6.50;;;2.27;;
1693;SDS011;844;47.058;15.472;2023-03-14T09:25:43;2.13;;;1.83;;
1693;SDS011;844;47.058;15.472;2023-03-14T09:28:14;3.13;;;2.07;;
1693;SDS011;844;47.058;15.472;2023-03-14T09:30:45;4.13;;;2.10;;
1693;SDS011;844;47.058;15.472;2023-03-14T09:33:17;4.40;;;2.00;;
1693;SDS011;844;47.058;15.472;2023-03-14T09:35:49;4.13;;;2.20;;
1693;SDS011;844;47.058;15.472;2023-03-14T09:38:21;3.33;;;2.30;;
1693;SDS011;844;47.058;15.472;2023-03-14T09:40:55;3.83;;;1.50;;
1693;SDS011;844;47.058;15.472;2023-03-14T09:43:29;3.40;;;2.50;;
1693;SDS011;844;47.058;15.472;2023-03-14T09:46:01;9.90;;;2.63;;
1693;SDS011;844;47.058;15.472;2023-03-14T09:48:33;5.27;;;2.30;;
1693;SDS011;844;47.058;15.472;2023-03-14T09:51:07;2.87;;;1.57;;
1693;SDS011;844;47.058;15.472;2023-03-14T09:53:44;2.83;;;1.60;;
1693;SDS011;844;47.058;15.472;2023-03-14T09:56:18;5.77;;;2.17;;
1693;SDS011;844;47.058;15.472;2023-03-14T09:58:50;5.47;;;1.73;;
1693;SDS011;844;47.058;15.472;2023-03-14T10:01:24;2.30;;;1.33;;
1693;SDS011;844;47.058;15.472;2023-03-14T10:04:00;1.87;;;1.40;;
1693;SDS011;844;47.058;15.472;2023-03-14T10:06:35;3.77;;;1.73;;
1693;SDS011;844;47.058;15.472;2023-03-14T10:09:08;4.23;;;1.63;;
1693;SDS011;844;47.058;15.472;2023-03-14T10:11:41;2.63;;;1.40;;
1693;SDS011;844;47.058;15.472;2023-03-14T10:14:15;3.70;;;1.30;;
1693;SDS011;844;47.058;15.472;2023-03-14T10:17:05;3.37;;;1.63;;
1693;SDS011;844;47.058;15.472;2023-03-14T10:19:37;2.07;;;1.60;;
1693;SDS011;844;47.058;15.472;2023-03-14T10:22:25;5.17;;;1.60;;
1693;SDS011;844;47.058;15.472;2023-03-14T10:25:00;3.73;;;1.60;;
1693;SDS011;844;47.058;15.472;2023-03-14T10:27:32;5.83;;;1.83;;
1693;SDS011;844;47.058;15.472;2023-03-14T10:30:04;5.00;;;1.70;;
1693;SDS011;844;47.058;15.472;2023-03-14T10:32:39;3.33;;;1.80;;
1693;SDS011;844;47.058;15.472;2023-03-14T10:35:20;3.13;;;1.43;;
1693;SDS011;844;47.058;15.472;2023-03-14T10:37:53;4.20;;;2.10;;
1693;SDS011;844;47.058;15.472;2023-03-14T10:40:28;6.10;;;2.77;;
1693;SDS011;844;47.058;15.472;2023-03-14T10:43:03;5.53;;;2.90;;
1693;SDS011;844;47.058;15.472;2023-03-14T10:45:52;5.13;;;2.40;;
1693;SDS011;844;47.058;15.472;2023-03-14T10:48:30;10.63;;;3.00;;
1693;SDS011;844;47.058;15.472;2023-03-14T10:51:03;4.50;;;1.90;;
1693;SDS011;844;47.058;15.472;2023-03-14T10:53:44;1.83;;;1.63;;
1693;SDS011;844;47.058;15.472;2023-03-14T10:56:17;4.43;;;1.73;;
1693;SDS011;844;47.058;15.472;2023-03-14T10:58:49;3.30;;;1.70;;
1693;SDS011;844;47.058;15.472;2023-03-14T11:01:26;2.70;;;1.67;;
1693;SDS011;844;47.058;15.472;2023-03-14T11:04:07;2.33;;;1.00;;
1693;SDS011;844;47.058;15.472;2023-03-14T11:06:55;2.27;;;0.80;;
1693;SDS011;844;47.058;15.472;2023-03-14T11:09:32;3.87;;;1.00;;
1693;SDS011;844;47.058;15.472;2023-03-14T11:12:13;1.40;;;0.83;;
1693;SDS011;844;47.058;15.472;2023-03-14T11:14:57;1.50;;;0.90;;
1693;SDS011;844;47.058;15.472;2023-03-14T11:17:34;1.30;;;0.80;;
1693;SDS011;844;47.058;15.472;2023-03-14T11:20:17;2.00;;;0.77;;
1693;SDS011;844;47.058;15.472;2023-03-14T11:23:02;3.20;;;0.77;;
1693;SDS011;844;47.058;15.472;2023-03-14T11:25:41;2.90;;;0.93;;
1693;SDS011;844;47.058;15.472;2023-03-14T11:28:18;1.40;;;0.93;;
1693;SDS011;844;47.058;15.472;2023-03-14T11:30:55;1.47;;;0.87;;
1693;SDS011;844;47.058;15.472;2023-03-14T11:33:35;2.20;;;0.80;;
1693;SDS011;844;47.058;15.472;2023-03-14T11:36:07;1.17;;;0.60;;
1693;SDS011;844;47.058;15.472;2023-03-14T11:38:39;1.30;;;0.60;;
1693;SDS011;844;47.058;15.472;2023-03-14T11:41:14;3.37;;;1.47;;
1693;SDS011;844;47.058;15.472;2023-03-14T11:43:48;1.20;;;0.87;;
1693;SDS011;844;47.058;15.472;2023-03-14T11:46:22;1.93;;;1.10;;
1693;SDS011;844;47.058;15.472;2023-03-14T11:48:59;2.10;;;0.80;;
1693;SDS011;844;47.058;15.472;2023-03-14T11:51:34;1.73;;;0.90;;
1693;SDS011;844;47.058;15.472;2023-03-14T11:54:11;2.47;;;0.80;;
1693;SDS011;844;47.058;15.472;2023-03-14T11:56:46;2.73;;;1.20;;
1693;SDS011;844;47.058;15.472;2023-03-14T11:59:23;0.70;;;0.53;;
1693;SDS011;844;47.058;15.472;2023-03-14T12:02:10;2.73;;;1.73;;
1693;SDS011;844;47.058;15.472;2023-03-14T12:04:49;2.00;;;0.83;;
1693;SDS011;844;47.058;15.472;2023-03-14T12:07:34;1.63;;;0.60;;
1693;SDS011;844;47.058;15.472;2023-03-14T12:10:09;0.90;;;0.57;;
1693;SDS011;844;47.058;15.472;2023-03-14T12:12:42;1.00;;;0.80;;
1693;SDS011;844;47.058;15.472;2023-03-14T12:15:18;1.00;;;0.50;;
1693;SDS011;844;47.058;15.472;2023-03-14T12:17:54;1.00;;;0.70;;
1693;SDS011;844;47.058;15.472;2023-03-14T12:20:26;1.00;;;0.50;;
1693;SDS011;844;47.058;15.472;2023-03-14T12:23:01;2.30;;;0.80;;
1693;SDS011;844;47.058;15.472;2023-03-14T12:25:34;1.10;;;1.00;;
1693;SDS011;844;47.058;15.472;2023-03-14T12:28:16;3.53;;;2.47;;
1693;SDS011;844;47.058;15.472;2023-03-14T12:30:48;1.60;;;1.10;;
1693;SDS011;844;47.058;15.472;2023-03-14T12:36:12;3.07;;;1.27;;
1693;SDS011;844;47.058;15.472;2023-03-14T12:39:21;2.60;;;1.10;;
1693;SDS011;844;47.058;15.472;2023-03-14T12:42:01;1.83;;;1.30;;
1693;SDS011;844;47.058;15.472;2023-03-14T12:44:43;1.80;;;1.50;;
1693;SDS011;844;47.058;15.472;2023-03-14T12:50:26;2.47;;;1.07;;
1693;SDS011;844;47.058;15.472;2023-03-14T12:56:17;3.90;;;1.10;;
1693;SDS011;844;47.058;15.472;2023-03-14T13:01:52;1.83;;;1.20;;
1693;SDS011;844;47.058;15.472;2023-03-14T13:04:28;1.40;;;1.00;;
1693;SDS011;844;47.058;15.472;2023-03-14T13:07:11;2.23;;;1.93;;
1693;SDS011;844;47.058;15.472;2023-03-14T13:09:52;1.20;;;1.07;;
1693;SDS011;844;47.058;15.472;2023-03-14T13:12:28;2.97;;;1.37;;
1693;SDS011;844;47.058;15.472;2023-03-14T13:15:11;3.73;;;1.13;;
1693;SDS011;844;47.058;15.472;2023-03-14T13:17:47;2.20;;;1.23;;
1693;SDS011;844;47.058;15.472;2023-03-14T13:20:21;4.40;;;1.30;;
1693;SDS011;844;47.058;15.472;2023-03-14T13:22:56;2.60;;;1.13;;
1693;SDS011;844;47.058;15.472;2023-03-14T13:25:29;1.93;;;0.80;;
1693;SDS011;844;47.058;15.472;2023-03-14T13:28:01;5.00;;;1.50;;
1693;SDS011;844;47.058;15.472;2023-03-14T13:30:38;2.70;;;1.10;;
1693;SDS011;844;47.058;15.472;2023-03-14T13:33:15;1.60;;;1.10;;
1693;SDS011;844;47.058;15.472;2023-03-14T13:35:49;3.70;;;1.40;;
1693;SDS011;844;47.058;15.472;2023-03-14T13:38:24;0.97;;;0.87;;
1693;SDS011;844;47.058;15.472;2023-03-14T13:40:55;1.67;;;1.10;;
1693;SDS011;844;47.058;15.472;2023-03-14T13:43:28;2.50;;;1.37;;
1693;SDS011;844;47.058;15.472;2023-03-14T13:46:02;1.70;;;1.33;;
1693;SDS011;844;47.058;15.472;2023-03-14T13:48:39;4.40;;;1.53;;
1693;SDS011;844;47.058;15.472;2023-03-14T13:51:13;2.87;;;1.10;;
1693;SDS011;844;47.058;15.472;2023-03-14T13:53:46;4.40;;;1.10;;
1693;SDS011;844;47.058;15.472;2023-03-14T13:56:18;1.40;;;1.23;;
1693;SDS011;844;47.058;15.472;2023-03-14T13:58:50;2.40;;;1.00;;
1693;SDS011;844;47.058;15.472;2023-03-14T14:01:21;2.80;;;1.13;;
1693;SDS011;844;47.058;15.472;2023-03-14T14:03:55;2.80;;;1.30;;
1693;SDS011;844;47.058;15.472;2023-03-14T14:06:27;4.93;;;1.57;;
1693;SDS011;844;47.058;15.472;2023-03-14T14:09:00;3.10;;;1.43;;
1693;SDS011;844;47.058;15.472;2023-03-14T14:11:42;6.50;;;1.70;;
1693;SDS011;844;47.058;15.472;2023-03-14T14:14:35;1.53;;;1.23;;
1693;SDS011;844;47.058;15.472;2023-03-14T14:17:10;1.07;;;0.80;;
1693;SDS011;844;47.058;15.472;2023-03-14T14:19:43;1.03;;;0.80;;
1693;SDS011;844;47.058;15.472;2023-03-14T14:22:13;2.93;;;0.90;;
1693;SDS011;844;47.058;15.472;2023-03-14T14:24:45;1.47;;;1.00;;
1693;SDS011;844;47.058;15.472;2023-03-14T14:27:23;1.40;;;0.83;;
1693;SDS011;844;47.058;15.472;2023-03-14T14:29:59;1.30;;;1.13;;
1693;SDS011;844;47.058;15.472;2023-03-14T14:32:35;6.37;;;1.27;;
1693;SDS011;844;47.058;15.472;2023-03-14T14:35:21;1.03;;;0.80;;
1693;SDS011;844;47.058;15.472;2023-03-14T14:37:52;1.57;;;1.13;;
1693;SDS011;844;47.058;15.472;2023-03-14T14:40:24;2.07;;;1.40;;
1693;SDS011;844;47.058;15.472;2023-03-14T14:43:02;2.53;;;1.20;;
1693;SDS011;844;47.058;15.472;2023-03-14T14:45:32;1.90;;;1.30;;
1693;SDS011;844;47.058;15.472;2023-03-14T14:48:05;1.70;;;0.87;;
1693;SDS011;844;47.058;15.472;2023-03-14T14:50:50;3.13;;;1.23;;
1693;SDS011;844;47.058;15.472;2023-03-14T14:53:29;1.40;;;1.30;;
1693;SDS011;844;47.058;15.472;2023-03-14T14:56:07;1.63;;;0.90;;
1693;SDS011;844;47.058;15.472;2023-03-14T14:58:45;5.20;;;1.33;;
1693;SDS011;844;47.058;15.472;2023-03-14T15:01:17;1.37;;;0.87;;
1693;SDS011;844;47.058;15.472;2023-03-14T15:03:49;2.30;;;1.20;;
1693;SDS011;844;47.058;15.472;2023-03-14T15:06:24;1.90;;;1.33;;
1693;SDS011;844;47.058;15.472;2023-03-14T15:08:59;1.93;;;1.50;;
1693;SDS011;844;47.058;15.472;2023-03-14T15:11:31;1.23;;;1.13;;
1693;SDS011;844;47.058;15.472;2023-03-14T15:14:01;4.40;;;1.50;;
1693;SDS011;844;47.058;15.472;2023-03-14T15:16:37;2.20;;;1.23;;
1693;SDS011;844;47.058;15.472;2023-03-14T15:19:12;1.80;;;1.27;;
1693;SDS011;844;47.058;15.472;2023-03-14T15:21:53;1.30;;;1.03;;
1693;SDS011;844;47.058;15.472;2023-03-14T15:24:24;3.10;;;1.40;;
1693;SDS011;844;47.058;15.472;2023-03-14T15:26:55;2.23;;;1.60;;
1693;SDS011;844;47.058;15.472;2023-03-14T15:29:27;2.23;;;1.40;;
1693;SDS011;844;47.058;15.472;2023-03-14T15:31:58;3.70;;;1.60;;
1693;SDS011;844;47.058;15.472;2023-03-14T15:34:29;3.03;;;1.70;;
1693;SDS011;844;47.058;15.472;2023-03-14T15:37:07;4.17;;;1.80;;
1693;SDS011;844;47.058;15.472;2023-03-14T15:39:40;7.67;;;1.57;;
1693;SDS011;844;47.058;15.472;2023-03-14T15:42:11;4.80;;;1.50;;
1693;SDS011;844;47.058;15.472;2023-03-14T15:44:42;2.90;;;1.40;;
1693;SDS011;844;47.058;15.472;2023-03-14T15:47:13;3.50;;;2.17;;
1693;SDS011;844;47.058;15.472;2023-03-14T15:49:44;7.50;;;2.10;;
1693;SDS011;844;47.058;15.472;2023-03-14T15:52:18;4.53;;;1.43;;
1693;SDS011;844;47.058;15.472;2023-03-14T15:54:49;6.07;;;2.13;;
1693;SDS011;844;47.058;15.472;2023-03-14T15:57:21;2.40;;;1.60;;
1693;SDS011;844;47.058;15.472;2023-03-14T15:59:53;3.70;;;1.40;;
1693;SDS011;844;47.058;15.472;2023-03-14T16:02:24;2.03;;;1.10;;
1693;SDS011;844;47.058;15.472;2023-03-14T16:04:55;2.47;;;1.43;;
1693;SDS011;844;47.058;15.472;2023-03-14T16:07:29;3.83;;;1.67;;
1693;SDS011;844;47.058;15.472;2023-03-14T16:10:00;2.93;;;1.70;;
1693;SDS011;844;47.058;15.472;2023-03-14T16:12:36;4.30;;;2.10;;